Wetterdaten: Woche 13.06.11 - 19.06.11 (KW24)
Datum Zeit Temp. A. Feuchte A. Luftdruck Regen Wind Richtung Taupunkt Windchill Windben
13.06.2011 00:00 15,2 C 80 % 1017,2 hPa 0,0 l/m 0,0 km/h N 11,8 C 15,2 C 0,0 km/h
13.06.2011 01:00 14,3 C 81 % 1017,0 hPa 0,0 l/m 0,0 km/h N 11,1 C 14,3 C 0,0 km/h
13.06.2011 02:00 13,6 C 82 % 1016,6 hPa 0,0 l/m 0,0 km/h N 10,5 C 13,6 C 0,0 km/h
13.06.2011 03:00 13,2 C 82 % 1016,6 hPa 0,0 l/m 0,0 km/h N 10,1 C 13,2 C 1,2 km/h
13.06.2011 04:00 13,9 C 81 % 1016,5 hPa 0,0 l/m 0,1 km/h N 10,7 C 13,9 C 1,6 km/h
13.06.2011 05:00 14,0 C 82 % 1016,5 hPa 0,0 l/m 0,1 km/h N 10,9 C 14,0 C 1,6 km/h
13.06.2011 06:00 14,6 C 82 % 1016,4 hPa 0,0 l/m 0,2 km/h W-NW 11,6 C 14,6 C 2,0 km/h
13.06.2011 07:00 16,2 C 79 % 1016,4 hPa 0,0 l/m 2,0 km/h N-NW 12,5 C 16,2 C 6,4 km/h
13.06.2011 08:00 17,6 C 73 % 1016,7 hPa 0,0 l/m 1,4 km/h N-NW 12,8 C 17,6 C 6,0 km/h
13.06.2011 09:00 18,4 C 73 % 1016,6 hPa 0,0 l/m 1,2 km/h N-NO 13,4 C 18,4 C 6,4 km/h
13.06.2011 10:00 21,5 C 64 % 1016,1 hPa 0,0 l/m 1,4 km/h N-NW 14,3 C 21,5 C 6,4 km/h
13.06.2011 11:00 25,1 C 52 % 1015,7 hPa 0,0 l/m 1,7 km/h N-NO 14,5 C 25,1 C 8,0 km/h
13.06.2011 12:00 26,1 C 49 % 1015,4 hPa 0,0 l/m 1,0 km/h N-NO 14,6 C 26,1 C 6,0 km/h
13.06.2011 13:00 27,1 C 46 % 1014,9 hPa 0,0 l/m 1,9 km/h N 14,4 C 27,1 C 6,4 km/h
13.06.2011 14:00 28,0 C 43 % 1014,3 hPa 0,0 l/m 1,2 km/h NO 14,2 C 28,0 C 5,6 km/h
13.06.2011 15:00 27,7 C 42 % 1013,8 hPa 0,0 l/m 1,7 km/h N 13,4 C 27,7 C 6,0 km/h
13.06.2011 16:00 28,0 C 41 % 1013,5 hPa 0,0 l/m 0,5 km/h N 13,3 C 28,0 C 4,0 km/h
13.06.2011 17:00 27,4 C 41 % 1013,4 hPa 0,0 l/m 0,3 km/h N 12,7 C 27,4 C 3,2 km/h
13.06.2011 18:00 25,9 C 41 % 1013,6 hPa 0,0 l/m 1,3 km/h W-NW 11,6 C 25,9 C 7,2 km/h
13.06.2011 19:00 24,6 C 46 % 1013,8 hPa 0,0 l/m 0,4 km/h N 12,2 C 24,6 C 3,6 km/h
13.06.2011 20:00 23,1 C 50 % 1014,2 hPa 0,0 l/m 0,8 km/h S 12,0 C 23,1 C 8,9 km/h
13.06.2011 21:00 21,5 C 56 % 1014,7 hPa 0,0 l/m 1,7 km/h S 12,2 C 21,5 C 12,5 km/h
13.06.2011 22:00 20,8 C 61 % 1014,9 hPa 0,0 l/m 2,1 km/h N-NO 13,0 C 20,8 C 12,5 km/h
13.06.2011 23:00 20,0 C 65 % 1014,9 hPa 0,0 l/m 2,5 km/h NO 13,3 C 20,0 C 14,9 km/h
14.06.2011 00:00 19,5 C 66 % 1015,0 hPa 0,0 l/m 2,5 km/h SO 13,0 C 19,5 C 12,9 km/h
14.06.2011 01:00 19,1 C 67 % 1015,0 hPa 0,0 l/m 2,3 km/h S-SW 12,8 C 19,1 C 16,9 km/h
14.06.2011 02:00 18,8 C 65 % 1015,1 hPa 0,0 l/m 3,6 km/h W-SW 12,0 C 18,8 C 18,5 km/h
14.06.2011 03:00 18,6 C 64 % 1015,1 hPa 0,0 l/m 3,2 km/h O-NO 11,6 C 18,6 C 19,3 km/h
14.06.2011 04:00 17,9 C 68 % 1015,5 hPa 0,0 l/m 2,2 km/h S-SW 11,8 C 17,9 C 14,5 km/h
14.06.2011 05:00 17,2 C 71 % 1015,8 hPa 0,0 l/m 1,8 km/h SW 11,9 C 17,2 C 13,7 km/h
14.06.2011 06:00 17,5 C 68 % 1016,1 hPa 0,0 l/m 1,9 km/h SW 11,5 C 17,5 C 12,5 km/h
14.06.2011 07:00 18,0 C 66 % 1016,2 hPa 0,0 l/m 2,3 km/h W-NW 11,6 C 18,0 C 16,9 km/h
14.06.2011 08:00 19,0 C 65 % 1016,6 hPa 0,0 l/m 2,8 km/h SW 12,2 C 19,0 C 16,9 km/h
14.06.2011 09:00 19,3 C 65 % 1016,9 hPa 0,0 l/m 2,7 km/h N-NO 12,5 C 19,3 C 17,7 km/h
14.06.2011 10:00 20,6 C 61 % 1017,1 hPa 0,0 l/m 3,6 km/h N-NW 12,8 C 20,6 C 14,9 km/h
14.06.2011 11:00 23,7 C 53 % 1017,1 hPa 0,0 l/m 5,0 km/h S-SW 13,4 C 23,7 C 16,5 km/h
14.06.2011 12:00 25,0 C 47 % 1017,1 hPa 0,0 l/m 4,8 km/h S 12,9 C 25,0 C 18,5 km/h
14.06.2011 13:00 27,2 C 44 % 1016,5 hPa 0,0 l/m 5,1 km/h NW 13,7 C 27,2 C 16,9 km/h
14.06.2011 14:00 28,2 C 42 % 1015,9 hPa 0,0 l/m 5,2 km/h N-NW 14,0 C 28,2 C 14,9 km/h
14.06.2011 15:00 29,0 C 40 % 1015,5 hPa 0,0 l/m 5,5 km/h N-NO 14,1 C 29,0 C 15,7 km/h
14.06.2011 16:00 26,5 C 47 % 1015,9 hPa 0,0 l/m 7,6 km/h N-NW 14,3 C 26,3 C 18,9 km/h
14.06.2011 17:00 24,2 C 52 % 1016,0 hPa 0,0 l/m 6,4 km/h NW 13,7 C 24,1 C 16,9 km/h
14.06.2011 18:00 23,5 C 52 % 1016,0 hPa 0,0 l/m 4,1 km/h N-NW 12,9 C 23,5 C 13,7 km/h
14.06.2011 19:00 22,2 C 53 % 1016,3 hPa 0,0 l/m 1,9 km/h NW 12,2 C 22,2 C 7,6 km/h
14.06.2011 20:00 21,0 C 59 % 1016,6 hPa 0,0 l/m 0,7 km/h N 12,6 C 21,0 C 5,2 km/h
14.06.2011 21:00 20,1 C 61 % 1016,9 hPa 0,0 l/m 0,8 km/h S-SW 12,4 C 20,1 C 7,2 km/h
14.06.2011 22:00 19,4 C 64 % 1017,2 hPa 0,0 l/m 0,6 km/h N 12,4 C 19,4 C 6,4 km/h
14.06.2011 23:00 19,0 C 66 % 1017,4 hPa 0,0 l/m 0,5 km/h N 12,4 C 19,0 C 6,8 km/h
15.06.2011 00:00 18,8 C 66 % 1017,3 hPa 0,0 l/m 0,4 km/h N 12,4 C 18,8 C 5,6 km/h
15.06.2011 01:00 18,7 C 67 % 1017,1 hPa 0,0 l/m 0,1 km/h N 12,5 C 18,7 C 2,8 km/h
15.06.2011 02:00 17,9 C 70 % 1017,1 hPa 0,0 l/m 0,1 km/h N 12,2 C 17,9 C 2,0 km/h
15.06.2011 03:00 16,9 C 72 % 1017,2 hPa 0,0 l/m 0,0 km/h N 11,8 C 16,9 C 0,0 km/h
15.06.2011 04:00 15,4 C 77 % 1017,3 hPa 0,0 l/m 0,0 km/h N 11,3 C 15,4 C 0,0 km/h
15.06.2011 05:00 14,9 C 80 % 1017,4 hPa 0,0 l/m 0,0 km/h N 11,5 C 14,9 C 0,0 km/h
15.06.2011 06:00 15,9 C 81 % 1017,7 hPa 0,0 l/m 0,0 km/h N 12,6 C 15,9 C 1,2 km/h
15.06.2011 07:00 18,4 C 74 % 1017,8 hPa 0,0 l/m 1,3 km/h S-SO 13,6 C 18,4 C 10,1 km/h
15.06.2011 08:00 20,5 C 65 % 1017,8 hPa 0,0 l/m 2,6 km/h N-NW 13,6 C 20,5 C 9,3 km/h
15.06.2011 09:00 21,8 C 63 % 1017,9 hPa 0,0 l/m 3,2 km/h W 14,5 C 21,8 C 12,5 km/h
15.06.2011 10:00 24,8 C 55 % 1017,8 hPa 0,0 l/m 3,5 km/h N-NW 15,1 C 24,8 C 10,5 km/h
15.06.2011 11:00 28,5 C 47 % 1017,5 hPa 0,0 l/m 2,7 km/h N-NO 15,9 C 28,5 C 10,5 km/h
15.06.2011 12:00 29,2 C 44 % 1017,2 hPa 0,0 l/m 2,0 km/h N-NW 15,6 C 29,2 C 6,4 km/h
15.06.2011 13:00 28,3 C 44 % 1016,9 hPa 0,0 l/m 1,0 km/h N 14,9 C 28,3 C 5,2 km/h
15.06.2011 14:00 27,1 C 48 % 1016,7 hPa 0,0 l/m 3,0 km/h S 15,0 C 27,1 C 15,7 km/h
15.06.2011 15:00 26,8 C 48 % 1016,5 hPa 0,0 l/m 3,0 km/h SW 14,8 C 26,8 C 14,5 km/h
15.06.2011 16:00 28,7 C 42 % 1016,2 hPa 0,0 l/m 2,3 km/h S 14,5 C 28,7 C 13,3 km/h
15.06.2011 17:00 28,8 C 40 % 1015,9 hPa 0,0 l/m 3,1 km/h S-SW 13,8 C 28,8 C 12,9 km/h
15.06.2011 18:00 28,0 C 42 % 1015,6 hPa 0,0 l/m 2,7 km/h S 13,8 C 28,0 C 9,7 km/h
15.06.2011 19:00 26,4 C 46 % 1015,4 hPa 0,0 l/m 1,1 km/h S 13,6 C 26,4 C 5,6 km/h
15.06.2011 20:00 24,9 C 53 % 1015,4 hPa 0,0 l/m 0,1 km/h N 14,6 C 24,9 C 1,6 km/h
15.06.2011 21:00 22,5 C 61 % 1015,8 hPa 0,0 l/m 0,0 km/h N 14,5 C 22,5 C 1,2 km/h
15.06.2011 22:00 20,5 C 66 % 1016,0 hPa 0,0 l/m 0,0 km/h N 14,0 C 20,5 C 0,8 km/h
15.06.2011 23:00 19,0 C 71 % 1016,0 hPa 0,0 l/m 0,1 km/h N 13,7 C 19,0 C 2,8 km/h
16.06.2011 00:00 18,1 C 74 % 1015,9 hPa 0,0 l/m 0,0 km/h N 13,5 C 18,1 C 1,6 km/h
16.06.2011 01:00 17,4 C 76 % 1015,8 hPa 0,0 l/m 0,1 km/h N 13,2 C 17,4 C 2,4 km/h
16.06.2011 02:00 16,6 C 79 % 1015,7 hPa 0,0 l/m 0,0 km/h N 12,9 C 16,6 C 1,6 km/h
16.06.2011 03:00 16,0 C 81 % 1015,4 hPa 0,0 l/m 0,1 km/h N 12,6 C 16,0 C 0,8 km/h
16.06.2011 04:00 15,6 C 81 % 1015,0 hPa 0,0 l/m 0,1 km/h N 12,3 C 15,6 C 2,4 km/h
16.06.2011 05:00 14,7 C 81 % 1015,2 hPa 0,0 l/m 0,0 km/h N 11,5 C 14,7 C 1,2 km/h
16.06.2011 06:00 14,8 C 82 % 1015,3 hPa 0,0 l/m 0,0 km/h N 11,7 C 14,8 C 0,0 km/h
16.06.2011 07:00 16,0 C 81 % 1015,3 hPa 0,0 l/m 0,1 km/h N 12,7 C 16,0 C 0,8 km/h
16.06.2011 08:00 18,5 C 81 % 1015,2 hPa 0,0 l/m 0,1 km/h N 15,1 C 18,5 C 2,0 km/h
16.06.2011 09:00 20,6 C 74 % 1015,2 hPa 0,0 l/m 0,1 km/h N 15,8 C 20,6 C 1,6 km/h
16.06.2011 10:00 24,2 C 62 % 1014,9 hPa 0,0 l/m 0,2 km/h N 16,4 C 24,2 C 2,0 km/h
16.06.2011 11:00 28,4 C 52 % 1014,5 hPa 0,0 l/m 0,5 km/h O-NO 17,4 C 28,4 C 3,2 km/h
16.06.2011 12:00 28,5 C 49 % 1014,1 hPa 0,0 l/m 1,3 km/h O-NO 16,7 C 28,5 C 4,8 km/h
16.06.2011 13:00 29,8 C 45 % 1013,6 hPa 0,0 l/m 1,2 km/h NO 16,6 C 29,8 C 6,8 km/h
16.06.2011 14:00 29,6 C 43 % 1013,2 hPa 0,0 l/m 0,1 km/h N 15,6 C 29,6 C 2,0 km/h
16.06.2011 15:00 24,5 C 66 % 1013,9 hPa 6,0 l/m 7,0 km/h S-SW 17,1 C 23,9 C 23,3 km/h
16.06.2011 16:00 23,0 C 73 % 1013,4 hPa 0,3 l/m 2,2 km/h S-SO 17,7 C 23,0 C 10,4 km/h
16.06.2011 17:00 26,6 C 57 % 1012,5 hPa 0,0 l/m 1,8 km/h SW 17,2 C 26,6 C 8,8 km/h
16.06.2011 18:00 25,5 C 60 % 1012,0 hPa 0,0 l/m 1,4 km/h S-SW 17,2 C 25,5 C 6,8 km/h
16.06.2011 19:00 25,0 C 61 % 1011,6 hPa 0,0 l/m 0,0 km/h N 16,9 C 25,0 C 1,6 km/h
16.06.2011 20:00 24,4 C 67 % 1011,4 hPa 0,0 l/m 0,1 km/h N 17,7 C 24,4 C 3,2 km/h
16.06.2011 21:00 22,9 C 73 % 1011,5 hPa 0,0 l/m 0,0 km/h N 17,7 C 22,9 C 1,2 km/h
16.06.2011 22:00 21,0 C 77 % 1011,6 hPa 0,0 l/m 0,0 km/h N 16,9 C 21,0 C 0,0 km/h
16.06.2011 23:00 19,8 C 80 % 1011,2 hPa 0,0 l/m 0,1 km/h N 16,3 C 19,8 C 1,2 km/h
17.06.2011 00:00 18,7 C 81 % 1011,1 hPa 0,0 l/m 0,0 km/h N 15,3 C 18,7 C 0,8 km/h
17.06.2011 01:00 18,1 C 81 % 1011,6 hPa 0,0 l/m 0,0 km/h N 14,8 C 18,1 C 0,4 km/h
17.06.2011 02:00 19,3 C 78 % 1012,6 hPa 0,0 l/m 2,3 km/h S 15,3 C 19,3 C 13,7 km/h
17.06.2011 03:00 21,1 C 70 % 1012,7 hPa 0,0 l/m 6,5 km/h S 15,4 C 21,0 C 29,8 km/h
17.06.2011 04:00 20,8 C 68 % 1012,7 hPa 0,0 l/m 3,5 km/h NO 14,7 C 20,8 C 18,5 km/h
17.06.2011 05:00 20,4 C 68 % 1013,2 hPa 0,0 l/m 1,1 km/h NW 14,3 C 20,4 C 8,4 km/h
17.06.2011 06:00 20,3 C 68 % 1014,3 hPa 0,0 l/m 3,8 km/h SW 14,2 C 20,3 C 18,1 km/h
17.06.2011 07:00 20,0 C 70 % 1015,2 hPa 0,0 l/m 2,9 km/h W-NW 14,3 C 20,0 C 14,1 km/h
17.06.2011 08:00 20,2 C 71 % 1015,8 hPa 0,0 l/m 3,9 km/h N-NW 14,7 C 20,2 C 12,1 km/h
17.06.2011 09:00 20,6 C 71 % 1016,4 hPa 0,0 l/m 2,3 km/h SO 15,0 C 20,6 C 11,7 km/h
17.06.2011 10:00 20,4 C 67 % 1016,8 hPa 0,0 l/m 2,1 km/h N-NW 14,1 C 20,4 C 11,7 km/h
17.06.2011 11:00 21,4 C 65 % 1017,0 hPa 0,0 l/m 3,1 km/h NW 14,5 C 21,4 C 14,5 km/h
17.06.2011 12:00 21,7 C 65 % 1017,1 hPa 0,0 l/m 4,6 km/h N-NW 14,7 C 21,7 C 13,7 km/h
17.06.2011 13:00 22,2 C 66 % 1016,7 hPa 0,0 l/m 1,6 km/h N 15,5 C 22,2 C 6,4 km/h
17.06.2011 14:00 23,7 C 60 % 1015,8 hPa 0,0 l/m 0,6 km/h N 15,5 C 23,7 C 5,2 km/h
17.06.2011 15:00 25,8 C 54 % 1015,0 hPa 0,0 l/m 1,2 km/h N-NO 15,8 C 25,8 C 6,0 km/h
17.06.2011 16:00 26,4 C 53 % 1014,3 hPa 0,0 l/m 0,1 km/h N 15,9 C 26,4 C 1,6 km/h
17.06.2011 17:00 26,2 C 53 % 1013,4 hPa 0,0 l/m 0,3 km/h N 15,9 C 26,2 C 2,8 km/h
17.06.2011 18:00 25,7 C 53 % 1012,5 hPa 0,0 l/m 0,2 km/h N 15,4 C 25,7 C 2,8 km/h
17.06.2011 19:00 24,0 C 58 % 1011,9 hPa 0,0 l/m 0,2 km/h N 15,2 C 24,0 C 3,6 km/h
17.06.2011 20:00 22,8 C 64 % 1011,2 hPa 0,0 l/m 0,0 km/h N 15,5 C 22,8 C 1,6 km/h
17.06.2011 21:00 21,3 C 67 % 1011,0 hPa 0,0 l/m 0,1 km/h N 14,9 C 21,3 C 2,8 km/h
17.06.2011 22:00 19,8 C 72 % 1010,3 hPa 0,0 l/m 0,0 km/h N 14,6 C 19,8 C 0,8 km/h
17.06.2011 23:00 18,6 C 77 % 1009,5 hPa 0,0 l/m 0,0 km/h N 14,4 C 18,6 C 0,0 km/h
18.06.2011 00:00 17,7 C 80 % 1008,5 hPa 0,0 l/m 0,0 km/h N 14,2 C 17,7 C 0,0 km/h
18.06.2011 01:00 17,1 C 81 % 1007,2 hPa 0,0 l/m 0,0 km/h N 13,9 C 17,1 C 0,0 km/h
18.06.2011 02:00 16,6 C 81 % 1006,3 hPa 0,0 l/m 0,0 km/h N 13,3 C 16,6 C 0,4 km/h
18.06.2011 03:00 16,1 C 82 % 1005,7 hPa 0,0 l/m 0,0 km/h N 13,0 C 16,1 C 0,4 km/h
18.06.2011 04:00 15,6 C 82 % 1005,6 hPa 0,0 l/m 0,0 km/h N 12,5 C 15,6 C 0,4 km/h
18.06.2011 05:00 16,0 C 81 % 1005,9 hPa 0,0 l/m 0,5 km/h NW 12,7 C 16,0 C 5,6 km/h
18.06.2011 06:00 17,4 C 81 % 1006,6 hPa 0,0 l/m 0,1 km/h N 14,1 C 17,4 C 2,0 km/h
18.06.2011 07:00 19,2 C 79 % 1007,5 hPa 0,0 l/m 1,6 km/h S-SO 15,5 C 19,2 C 12,5 km/h
18.06.2011 08:00 20,8 C 72 % 1008,4 hPa 0,0 l/m 3,4 km/h S-SW 15,6 C 20,8 C 19,3 km/h
18.06.2011 09:00 20,8 C 68 % 1009,1 hPa 0,0 l/m 2,1 km/h S-SO 14,6 C 20,8 C 14,1 km/h
18.06.2011 10:00 20,9 C 66 % 1009,6 hPa 0,0 l/m 2,4 km/h S-SW 14,4 C 20,9 C 12,9 km/h
18.06.2011 11:00 20,7 C 65 % 1009,5 hPa 0,0 l/m 0,9 km/h O-NO 13,7 C 20,7 C 5,2 km/h
18.06.2011 12:00 20,8 C 66 % 1009,4 hPa 0,0 l/m 0,0 km/h N 14,1 C 20,8 C 0,8 km/h
18.06.2011 13:00 21,7 C 64 % 1009,2 hPa 0,0 l/m 0,0 km/h N 14,6 C 21,7 C 1,2 km/h
18.06.2011 14:00 22,5 C 65 % 1008,8 hPa 0,0 l/m 0,0 km/h N 15,5 C 22,5 C 0,0 km/h
18.06.2011 15:00 22,3 C 66 % 1008,5 hPa 0,0 l/m 0,0 km/h N 15,6 C 22,3 C 0,4 km/h
18.06.2011 16:00 22,4 C 65 % 1007,7 hPa 0,0 l/m 0,0 km/h N 15,4 C 22,4 C 0,0 km/h
18.06.2011 17:00 22,2 C 68 % 1007,3 hPa 0,0 l/m 0,0 km/h N 15,9 C 22,2 C 0,8 km/h
18.06.2011 18:00 21,0 C 70 % 1007,9 hPa 0,3 l/m 2,6 km/h N-NW 15,3 C 21,0 C 8,1 km/h
18.06.2011 19:00 17,6 C 80 % 1010,0 hPa 7,3 l/m 2,2 km/h N-NW 14,2 C 17,6 C 8,9 km/h
18.06.2011 20:00 15,9 C 81 % 1010,5 hPa 0,5 l/m 2,7 km/h N-NW 12,7 C 15,9 C 10,1 km/h
18.06.2011 21:00 15,1 C 81 % 1011,3 hPa 2,1 l/m 3,3 km/h NW 11,8 C 15,1 C 11,7 km/h
18.06.2011 22:00 14,0 C 82 % 1011,6 hPa 2,6 l/m 4,5 km/h N-NW 10,9 C 14,0 C 19,7 km/h
18.06.2011 23:00 12,6 C 82 % 1011,5 hPa 3,9 l/m 3,8 km/h N-NW 9,6 C 12,6 C 16,5 km/h
19.06.2011 00:00 12,2 C 82 % 1011,5 hPa 2,3 l/m 1,5 km/h S 9,2 C 12,2 C 11,6 km/h
19.06.2011 01:00 11,8 C 83 % 1012,0 hPa 6,0 l/m 0,3 km/h N 9,0 C 11,8 C 5,2 km/h
19.06.2011 02:00 11,5 C 83 % 1012,5 hPa 5,7 l/m 0,0 km/h N 8,6 C 11,5 C 2,0 km/h
19.06.2011 03:00 11,3 C 82 % 1011,7 hPa 2,1 l/m 0,0 km/h N 8,3 C 11,3 C 0,0 km/h
19.06.2011 04:00 11,3 C 82 % 1011,8 hPa 0,0 l/m 0,1 km/h N 8,4 C 11,3 C 1,6 km/h
19.06.2011 05:00 11,4 C 82 % 1011,5 hPa 1,3 l/m 0,0 km/h N 8,4 C 11,4 C 1,2 km/h
19.06.2011 06:00 11,4 C 81 % 1011,3 hPa 0,0 l/m 0,1 km/h S 8,4 C 11,4 C 2,0 km/h
19.06.2011 07:00 11,9 C 83 % 1011,4 hPa 0,0 l/m 2,5 km/h NW 9,1 C 11,9 C 16,1 km/h
19.06.2011 08:00 12,9 C 82 % 1011,7 hPa 0,0 l/m 2,4 km/h W-SW 9,9 C 12,9 C 16,1 km/h
19.06.2011 09:00 14,1 C 76 % 1012,0 hPa 0,0 l/m 2,7 km/h S-SO 10,0 C 14,1 C 16,9 km/h
19.06.2011 10:00 15,1 C 72 % 1011,8 hPa 0,0 l/m 4,3 km/h SW 10,1 C 15,1 C 21,3 km/h
19.06.2011 11:00 17,3 C 64 % 1011,3 hPa 0,0 l/m 4,7 km/h W 10,4 C 17,3 C 23,3 km/h
19.06.2011 12:00 19,9 C 56 % 1011,7 hPa 0,0 l/m 4,5 km/h S-SW 10,7 C 19,9 C 20,9 km/h
19.06.2011 13:00 21,3 C 48 % 1011,3 hPa 0,0 l/m 7,5 km/h W-NW 9,7 C 20,9 C 30,2 km/h
19.06.2011 14:00 21,9 C 46 % 1011,1 hPa 0,0 l/m 6,2 km/h O-SO 9,7 C 21,9 C 25,3 km/h
19.06.2011 15:00 21,3 C 46 % 1012,0 hPa 0,0 l/m 7,7 km/h N-NW 9,2 C 20,7 C 24,9 km/h
19.06.2011 16:00 19,2 C 51 % 1012,8 hPa 0,0 l/m 6,5 km/h NW 8,8 C 19,0 C 25,3 km/h
19.06.2011 17:00 19,9 C 49 % 1012,8 hPa 0,0 l/m 6,4 km/h SW 8,8 C 19,7 C 27,3 km/h
19.06.2011 18:00 18,2 C 52 % 1012,8 hPa 0,0 l/m 7,4 km/h NW 8,2 C 17,5 C 28,5 km/h
19.06.2011 19:00 16,9 C 54 % 1013,4 hPa 0,0 l/m 4,2 km/h SO 7,5 C 16,9 C 23,7 km/h
19.06.2011 20:00 16,0 C 58 % 1013,7 hPa 0,0 l/m 2,5 km/h O 7,7 C 16,0 C 14,1 km/h
19.06.2011 21:00 15,1 C 60 % 1014,6 hPa 0,0 l/m 1,8 km/h S-SO 7,5 C 15,1 C 11,3 km/h
19.06.2011 22:00 14,8 C 61 % 1015,2 hPa 0,0 l/m 3,4 km/h S-SO 7,3 C 14,8 C 19,7 km/h
19.06.2011 23:00 14,8 C 61 % 1015,3 hPa 0,0 l/m 2,8 km/h W 7,3 C 14,8 C 17,7 km/h
Min-Datum _ 19.06.11 14.06.11 18.06.11 - 13.06.11 - 19.06.11 19.06.11 13.06.11
_ Min-Zeit 03:30 15:00 03:45 - 00:00 - 22:15 03:30 00:00
Minimum _ 11,2 C 38 % 1005,5 hPa - 0,0 km/h - 7,1 C 11,2 C 0,0 km/h
Max-Datum _ 16.06.11 19.06.11 15.06.11 18.06.11 19.06.11 - 16.06.11 16.06.11 19.06.11
_ Max-Zeit 13:45 00:45 08:45 19:15 18:00 - 16:15 13:30 17:45
Maximum _ 30,5 C 83 % 1017,9 hPa 7,3 l/m 12,0 km/h
NW
- 18,8 C 30,4 C 40,2 km/h
W-SW
Durchschnitt _ 20,3 C 65 % 1013,8 hPa #40,3 l/m 1,8 km/h N-NW 13,1 C 20,3 C 8,6 km/h